»·PEaware :: N544JH KSNA-KLAS

N544JH :: KSNA-KLAS

FLIGHT INFORMATION

Flight Status: Arrived
Operator: Privately registered:
United States
More flights under this callsign
Pilot: Merv A. (1555)
Aircraft: Unknown
(B60T)
More flights by this aircraft type
Origin: KSNA John Wayne-Orange Co
United States
Destination: KLAS McCarran Intl
United States
More flights between these airports :: More routes between these airports
Route: +MUSEL8 DAG CRESO3
File this flight plan on PilotEdge
Remarks: rmk / p3d
Altitude:
(Current/Filed)
21,000ft
Speed:
(Current/Filed)
265kts
Departed: 12-Aug-17 06:09 PM
Arrived: 12-Aug-17 07:11 PM
Distance/Time
Traveled:
196nm/1:02
Distance/Time
To Go:
Arrived

Flight Plot

Page will automatically refresh every two minutes.


Map Options




Map Legend


Flown Route
Filed Route
Departure Airport
Arrival Airport
Navaid (VOR, NDB)
Fix

Horizontal Profiles

Position Reports

Time Latitude Longitude Heading Altitude Ground
Speed
12-Aug-17 17:43 33.667690 -117.875634 28 59ft 0kts
12-Aug-17 17:44 33.667690 -117.875634 28 59ft 0kts
12-Aug-17 17:45 33.667690 -117.875634 28 59ft 0kts
12-Aug-17 17:46 33.667690 -117.875634 28 59ft 0kts
12-Aug-17 17:47 33.667690 -117.875634 28 59ft 0kts
12-Aug-17 17:48 33.667690 -117.875634 28 59ft 0kts
12-Aug-17 17:49 33.667695 -117.875631 28 59ft 0kts
12-Aug-17 17:50 33.667695 -117.875631 28 59ft 0kts
12-Aug-17 17:51 33.667695 -117.875631 28 59ft 0kts
12-Aug-17 17:52 33.667695 -117.875631 28 59ft 0kts
12-Aug-17 17:53 33.667695 -117.875631 28 59ft 0kts
12-Aug-17 17:54 33.667695 -117.875631 28 59ft 0kts
12-Aug-17 17:55 33.667695 -117.875631 28 59ft 0kts
12-Aug-17 17:56 33.667695 -117.875631 28 59ft 0kts
12-Aug-17 17:57 33.667695 -117.875631 28 59ft 0kts
12-Aug-17 17:58 33.667695 -117.875631 28 59ft 0kts
12-Aug-17 17:59 33.667695 -117.875631 28 59ft 0kts
12-Aug-17 18:00 33.667695 -117.875631 28 59ft 0kts
12-Aug-17 18:01 33.667695 -117.875631 28 59ft 0kts
12-Aug-17 18:02 33.667724 -117.875607 46 59ft 1kts
12-Aug-17 18:03 33.667698 -117.875383 108 59ft 0kts
12-Aug-17 18:04 33.667768 -117.875212 33 59ft 3kts
12-Aug-17 18:05 33.669261 -117.874400 26 59ft 8kts
12-Aug-17 18:06 33.671741 -117.872836 27 59ft 14kts
12-Aug-17 18:07 33.676051 -117.870117 27 59ft 15kts
12-Aug-17 18:08 33.678325 -117.868695 28 59ft 7kts
12-Aug-17 18:09 33.680218 -117.867680 27 59ft 8kts
12-Aug-17 18:10 33.681053 -117.866130 116 59ft 8kts
12-Aug-17 18:11 33.680213 -117.865999 207 59ft 30kts
12-Aug-17 18:12 33.654749 -117.881743 208 1627ft 121kts
12-Aug-17 18:13 33.618633 -117.892160 189 3873ft 148kts
12-Aug-17 18:14 33.575342 -117.900094 189 6102ft 162kts
12-Aug-17 18:15 33.558398 -117.943723 292 7975ft 187kts
12-Aug-17 18:16 33.606002 -117.975169 337 9420ft 192kts
12-Aug-17 18:17 33.652579 -117.995635 335 11297ft 173kts
12-Aug-17 18:18 33.698325 -118.016325 335 12802ft 176kts
12-Aug-17 18:19 33.744258 -118.037147 334 14299ft 176kts
12-Aug-17 18:20 33.794483 -118.045950 27 15817ft 203kts
12-Aug-17 18:21 33.840417 -118.003344 35 17179ft 215kts
12-Aug-17 18:22 33.888871 -117.959307 34 18382ft 220kts
12-Aug-17 18:23 33.937936 -117.914768 34 19577ft 221kts
12-Aug-17 18:24 33.988376 -117.868988 34 20583ft 238kts
12-Aug-17 18:25 34.043412 -117.818900 34 20937ft 255kts
12-Aug-17 18:26 34.097399 -117.761777 47 20951ft 267kts
12-Aug-17 18:27 34.148484 -117.692729 46 20943ft 283kts
12-Aug-17 18:28 34.201263 -117.621462 46 20928ft 283kts
12-Aug-17 18:29 34.253616 -117.550689 46 20915ft 282kts
12-Aug-17 18:30 34.305858 -117.479945 46 20924ft 282kts
12-Aug-17 18:31 34.357958 -117.409228 46 20940ft 281kts
12-Aug-17 18:32 34.410124 -117.338278 46 20981ft 280kts
12-Aug-17 18:33 34.462149 -117.267383 46 20995ft 281kts
12-Aug-17 18:34 34.514074 -117.196478 46 20999ft 281kts
12-Aug-17 18:35 34.566170 -117.125193 46 21007ft 281kts
12-Aug-17 18:36 34.617910 -117.054252 46 21003ft 282kts
12-Aug-17 18:37 34.670063 -116.982596 47 20973ft 282kts
12-Aug-17 18:38 34.722269 -116.910723 46 20922ft 283kts
12-Aug-17 18:39 34.774407 -116.838789 47 20873ft 284kts
12-Aug-17 18:40 34.826663 -116.766543 47 20851ft 283kts
12-Aug-17 18:41 34.878573 -116.694627 47 20850ft 282kts
12-Aug-17 18:42 34.930367 -116.622721 46 20858ft 282kts
12-Aug-17 18:43 34.976966 -116.546036 61 20872ft 284kts
12-Aug-17 18:44 35.014563 -116.461020 60 20878ft 284kts
12-Aug-17 18:45 35.052145 -116.376202 60 20884ft 284kts
12-Aug-17 18:46 35.089841 -116.291036 60 20887ft 284kts
12-Aug-17 18:47 35.127405 -116.205893 60 20889ft 285kts
12-Aug-17 18:48 35.164989 -116.120517 60 20877ft 286kts
12-Aug-17 18:49 35.202343 -116.035427 60 19846ft 285kts
12-Aug-17 18:50 35.238587 -115.952665 60 18541ft 267kts
12-Aug-17 18:51 35.273240 -115.873382 61 17243ft 262kts
12-Aug-17 18:52 35.307338 -115.795179 61 15915ft 259kts
12-Aug-17 18:53 35.353877 -115.729324 46 14518ft 254kts
12-Aug-17 18:54 35.401094 -115.666485 47 13113ft 246kts
12-Aug-17 18:55 35.446627 -115.605658 47 11967ft 237kts
12-Aug-17 18:56 35.491974 -115.544945 48 11075ft 240kts
12-Aug-17 18:57 35.535893 -115.486090 48 11014ft 228kts
12-Aug-17 18:58 35.578715 -115.428700 47 11016ft 226kts
12-Aug-17 18:59 35.621787 -115.372342 47 11018ft 226kts
12-Aug-17 19:00 35.664660 -115.315390 47 11033ft 231kts
12-Aug-17 19:01 35.709239 -115.254952 48 11028ft 242kts
12-Aug-17 19:02 35.753877 -115.192581 49 11026ft 242kts
12-Aug-17 19:03 35.799391 -115.131900 30 11015ft 241kts
12-Aug-17 19:04 35.864506 -115.118640 2 11032ft 231kts
12-Aug-17 19:05 35.927872 -115.112830 2 10571ft 224kts
12-Aug-17 19:06 35.983992 -115.107641 2 9230ft 178kts
12-Aug-17 19:07 36.029151 -115.103178 2 7891ft 150kts
12-Aug-17 19:08 36.069787 -115.090636 21 6572ft 167kts
12-Aug-17 19:09 36.107528 -115.071220 23 5338ft 141kts
12-Aug-17 19:10 36.135175 -115.090687 292 4296ft 130kts
12-Aug-17 19:12 36.140806 -115.126852 220 3645ft 102kts
12-Aug-17 19:13 36.114487 -115.147292 206 2785ft 111kts
12-Aug-17 19:14 36.090107 -115.161948 203 2184ft 44kts
12-Aug-17 19:15 36.089360 -115.163438 293 2184ft 0kts
12-Aug-17 19:16 36.089660 -115.164292 281 2184ft 6kts
12-Aug-17 19:17 36.087474 -115.165840 204 2184ft 9kts
12-Aug-17 19:18 36.086680 -115.166767 115 2184ft 0kts
12-Aug-17 19:19 36.086680 -115.166766 115 2184ft 0kts
12-Aug-17 19:20 36.086680 -115.166766 115 2184ft 0kts
12-Aug-17 19:21 36.086680 -115.166766 115 2184ft 0kts

Navigation Log

Ident Type
1. KSNA Airport
2. MUSEL Fix
3. MUSEL Fix
4. SLI Navaid
5. POM Navaid
6. GARDY Fix
7. DAG Navaid
8. DAG Navaid
9. JOKUR Fix
10. DANBY Fix
11. SARAS Fix
12. WHIGG Fix
13. CRESO Fix
14. BLD Navaid
15. KLAS Airport